sensor_id;sensor_type;location;lat;lon;timestamp;P1;durP1;ratioP1;P2;durP2;ratioP2
54993;SDS011;40891;47.242;8.648;2023-02-04T00:01:16;4.13;;;2.40;;
54993;SDS011;40891;47.242;8.648;2023-02-04T00:03:42;7.57;;;2.27;;
54993;SDS011;40891;47.242;8.648;2023-02-04T00:06:07;3.10;;;2.07;;
54993;SDS011;40891;47.242;8.648;2023-02-04T00:08:32;4.73;;;2.00;;
54993;SDS011;40891;47.242;8.648;2023-02-04T00:10:57;3.40;;;2.23;;
54993;SDS011;40891;47.242;8.648;2023-02-04T00:13:23;4.37;;;2.20;;
54993;SDS011;40891;47.242;8.648;2023-02-04T00:15:48;4.97;;;2.30;;
54993;SDS011;40891;47.242;8.648;2023-02-04T00:18:13;6.37;;;2.33;;
54993;SDS011;40891;47.242;8.648;2023-02-04T00:20:39;6.03;;;2.50;;
54993;SDS011;40891;47.242;8.648;2023-02-04T00:23:04;4.07;;;2.53;;
54993;SDS011;40891;47.242;8.648;2023-02-04T00:25:29;4.93;;;2.40;;
54993;SDS011;40891;47.242;8.648;2023-02-04T00:27:55;5.00;;;2.37;;
54993;SDS011;40891;47.242;8.648;2023-02-04T00:30:20;4.77;;;2.40;;
54993;SDS011;40891;47.242;8.648;2023-02-04T00:32:45;3.60;;;2.03;;
54993;SDS011;40891;47.242;8.648;2023-02-04T00:35:11;6.97;;;2.50;;
54993;SDS011;40891;47.242;8.648;2023-02-04T00:37:37;5.40;;;2.40;;
54993;SDS011;40891;47.242;8.648;2023-02-04T00:40:02;4.20;;;2.67;;
54993;SDS011;40891;47.242;8.648;2023-02-04T00:42:28;5.73;;;2.53;;
54993;SDS011;40891;47.242;8.648;2023-02-04T00:44:53;5.47;;;2.63;;
54993;SDS011;40891;47.242;8.648;2023-02-04T00:47:21;8.10;;;2.87;;
54993;SDS011;40891;47.242;8.648;2023-02-04T00:49:47;6.60;;;2.97;;
54993;SDS011;40891;47.242;8.648;2023-02-04T00:52:12;5.30;;;2.77;;
54993;SDS011;40891;47.242;8.648;2023-02-04T00:54:37;4.67;;;2.80;;
54993;SDS011;40891;47.242;8.648;2023-02-04T00:57:03;4.10;;;2.67;;
54993;SDS011;40891;47.242;8.648;2023-02-04T00:59:28;6.00;;;2.80;;
54993;SDS011;40891;47.242;8.648;2023-02-04T01:01:53;6.33;;;3.27;;
54993;SDS011;40891;47.242;8.648;2023-02-04T01:04:18;4.30;;;2.90;;
54993;SDS011;40891;47.242;8.648;2023-02-04T01:06:45;5.30;;;2.60;;
54993;SDS011;40891;47.242;8.648;2023-02-04T01:09:10;4.63;;;3.17;;
54993;SDS011;40891;47.242;8.648;2023-02-04T01:11:35;4.37;;;2.97;;
54993;SDS011;40891;47.242;8.648;2023-02-04T01:14:01;6.13;;;3.50;;
54993;SDS011;40891;47.242;8.648;2023-02-04T01:16:26;4.20;;;3.23;;
54993;SDS011;40891;47.242;8.648;2023-02-04T01:18:52;4.83;;;3.30;;
54993;SDS011;40891;47.242;8.648;2023-02-04T01:21:19;8.47;;;3.20;;
54993;SDS011;40891;47.242;8.648;2023-02-04T01:23:46;8.97;;;3.43;;
54993;SDS011;40891;47.242;8.648;2023-02-04T01:26:13;6.23;;;3.27;;
54993;SDS011;40891;47.242;8.648;2023-02-04T01:28:39;8.23;;;3.70;;
54993;SDS011;40891;47.242;8.648;2023-02-04T01:31:04;5.97;;;3.60;;
54993;SDS011;40891;47.242;8.648;2023-02-04T01:33:30;4.87;;;3.07;;
54993;SDS011;40891;47.242;8.648;2023-02-04T01:35:55;7.10;;;4.00;;
54993;SDS011;40891;47.242;8.648;2023-02-04T01:38:20;6.60;;;3.60;;
54993;SDS011;40891;47.242;8.648;2023-02-04T01:40:45;4.90;;;3.20;;
54993;SDS011;40891;47.242;8.648;2023-02-04T01:43:11;5.97;;;3.87;;
54993;SDS011;40891;47.242;8.648;2023-02-04T01:45:37;5.40;;;3.47;;
54993;SDS011;40891;47.242;8.648;2023-02-04T01:48:03;5.17;;;3.60;;
54993;SDS011;40891;47.242;8.648;2023-02-04T01:50:30;6.87;;;3.80;;
54993;SDS011;40891;47.242;8.648;2023-02-04T01:52:55;5.60;;;3.70;;
54993;SDS011;40891;47.242;8.648;2023-02-04T01:55:23;7.13;;;3.70;;
54993;SDS011;40891;47.242;8.648;2023-02-04T01:57:50;6.53;;;3.93;;
54993;SDS011;40891;47.242;8.648;2023-02-04T02:00:27;7.13;;;4.17;;
54993;SDS011;40891;47.242;8.648;2023-02-04T02:02:55;4.93;;;3.80;;
54993;SDS011;40891;47.242;8.648;2023-02-04T02:05:22;8.27;;;4.43;;
54993;SDS011;40891;47.242;8.648;2023-02-04T02:07:50;6.37;;;4.20;;
54993;SDS011;40891;47.242;8.648;2023-02-04T02:10:18;7.27;;;4.50;;
54993;SDS011;40891;47.242;8.648;2023-02-04T02:12:44;5.03;;;3.80;;
54993;SDS011;40891;47.242;8.648;2023-02-04T02:15:11;5.47;;;3.97;;
54993;SDS011;40891;47.242;8.648;2023-02-04T02:17:37;5.03;;;3.80;;
54993;SDS011;40891;47.242;8.648;2023-02-04T02:20:05;9.00;;;4.30;;
54993;SDS011;40891;47.242;8.648;2023-02-04T02:22:44;5.90;;;3.90;;
54993;SDS011;40891;47.242;8.648;2023-02-04T02:25:19;4.97;;;3.77;;
54993;SDS011;40891;47.242;8.648;2023-02-04T02:27:45;10.13;;;4.03;;
54993;SDS011;40891;47.242;8.648;2023-02-04T02:30:11;5.03;;;3.90;;
54993;SDS011;40891;47.242;8.648;2023-02-04T02:32:39;6.50;;;4.07;;
54993;SDS011;40891;47.242;8.648;2023-02-04T02:35:05;6.33;;;4.30;;
54993;SDS011;40891;47.242;8.648;2023-02-04T02:37:31;6.80;;;3.80;;
54993;SDS011;40891;47.242;8.648;2023-02-04T02:39:56;7.60;;;3.97;;
54993;SDS011;40891;47.242;8.648;2023-02-04T02:42:22;5.30;;;3.73;;
54993;SDS011;40891;47.242;8.648;2023-02-04T02:44:48;6.93;;;3.90;;
54993;SDS011;40891;47.242;8.648;2023-02-04T02:47:15;8.33;;;4.27;;
54993;SDS011;40891;47.242;8.648;2023-02-04T02:49:43;6.30;;;4.50;;
54993;SDS011;40891;47.242;8.648;2023-02-04T02:52:11;6.47;;;4.07;;
54993;SDS011;40891;47.242;8.648;2023-02-04T02:54:38;6.40;;;4.40;;
54993;SDS011;40891;47.242;8.648;2023-02-04T02:57:09;7.03;;;4.07;;
54993;SDS011;40891;47.242;8.648;2023-02-04T02:59:39;9.53;;;4.17;;
54993;SDS011;40891;47.242;8.648;2023-02-04T03:02:04;6.13;;;4.40;;
54993;SDS011;40891;47.242;8.648;2023-02-04T03:04:31;7.23;;;4.70;;
54993;SDS011;40891;47.242;8.648;2023-02-04T03:07:01;8.13;;;5.07;;
54993;SDS011;40891;47.242;8.648;2023-02-04T03:09:27;6.97;;;4.53;;
54993;SDS011;40891;47.242;8.648;2023-02-04T03:11:53;6.80;;;4.87;;
54993;SDS011;40891;47.242;8.648;2023-02-04T03:14:19;11.93;;;5.57;;
54993;SDS011;40891;47.242;8.648;2023-02-04T03:16:46;8.43;;;5.47;;
54993;SDS011;40891;47.242;8.648;2023-02-04T03:19:12;8.10;;;5.53;;
54993;SDS011;40891;47.242;8.648;2023-02-04T03:21:38;9.30;;;6.03;;
54993;SDS011;40891;47.242;8.648;2023-02-04T03:24:04;9.67;;;6.23;;
54993;SDS011;40891;47.242;8.648;2023-02-04T03:26:29;9.07;;;4.73;;
54993;SDS011;40891;47.242;8.648;2023-02-04T03:28:55;8.40;;;5.17;;
54993;SDS011;40891;47.242;8.648;2023-02-04T03:31:20;11.23;;;5.73;;
54993;SDS011;40891;47.242;8.648;2023-02-04T03:33:46;7.77;;;5.50;;
54993;SDS011;40891;47.242;8.648;2023-02-04T03:36:11;7.13;;;4.90;;
54993;SDS011;40891;47.242;8.648;2023-02-04T03:38:37;7.70;;;4.80;;
54993;SDS011;40891;47.242;8.648;2023-02-04T03:41:02;8.27;;;4.73;;
54993;SDS011;40891;47.242;8.648;2023-02-04T03:43:28;9.33;;;4.77;;
54993;SDS011;40891;47.242;8.648;2023-02-04T03:45:53;12.53;;;6.20;;
54993;SDS011;40891;47.242;8.648;2023-02-04T03:48:18;6.53;;;5.03;;
54993;SDS011;40891;47.242;8.648;2023-02-04T03:50:44;7.40;;;5.50;;
54993;SDS011;40891;47.242;8.648;2023-02-04T03:53:10;10.40;;;5.87;;
54993;SDS011;40891;47.242;8.648;2023-02-04T03:55:35;8.73;;;5.03;;
54993;SDS011;40891;47.242;8.648;2023-02-04T03:58:01;10.00;;;5.07;;
54993;SDS011;40891;47.242;8.648;2023-02-04T04:00:27;11.13;;;5.50;;
54993;SDS011;40891;47.242;8.648;2023-02-04T04:02:52;8.03;;;5.37;;
54993;SDS011;40891;47.242;8.648;2023-02-04T04:05:19;9.03;;;4.97;;
54993;SDS011;40891;47.242;8.648;2023-02-04T04:07:44;7.60;;;4.90;;
54993;SDS011;40891;47.242;8.648;2023-02-04T04:10:09;6.83;;;4.33;;
54993;SDS011;40891;47.242;8.648;2023-02-04T04:12:35;9.07;;;5.40;;
54993;SDS011;40891;47.242;8.648;2023-02-04T04:15:00;9.07;;;5.00;;
54993;SDS011;40891;47.242;8.648;2023-02-04T04:17:26;6.87;;;4.70;;
54993;SDS011;40891;47.242;8.648;2023-02-04T04:19:51;10.50;;;4.40;;
54993;SDS011;40891;47.242;8.648;2023-02-04T04:22:16;8.70;;;4.23;;
54993;SDS011;40891;47.242;8.648;2023-02-04T04:24:41;6.50;;;4.13;;
54993;SDS011;40891;47.242;8.648;2023-02-04T04:27:07;9.33;;;4.67;;
54993;SDS011;40891;47.242;8.648;2023-02-04T04:29:32;8.13;;;5.20;;
54993;SDS011;40891;47.242;8.648;2023-02-04T04:31:57;6.23;;;4.03;;
54993;SDS011;40891;47.242;8.648;2023-02-04T04:34:23;7.83;;;3.90;;
54993;SDS011;40891;47.242;8.648;2023-02-04T04:36:48;5.73;;;3.83;;
54993;SDS011;40891;47.242;8.648;2023-02-04T04:39:13;6.83;;;3.83;;
54993;SDS011;40891;47.242;8.648;2023-02-04T04:41:38;7.67;;;4.07;;
54993;SDS011;40891;47.242;8.648;2023-02-04T04:44:04;6.47;;;3.90;;
54993;SDS011;40891;47.242;8.648;2023-02-04T04:46:29;6.33;;;3.90;;
54993;SDS011;40891;47.242;8.648;2023-02-04T04:48:55;6.47;;;4.20;;
54993;SDS011;40891;47.242;8.648;2023-02-04T04:51:20;6.33;;;4.17;;
54993;SDS011;40891;47.242;8.648;2023-02-04T04:53:45;5.93;;;3.77;;
54993;SDS011;40891;47.242;8.648;2023-02-04T04:56:11;6.10;;;3.60;;
54993;SDS011;40891;47.242;8.648;2023-02-04T04:58:36;6.80;;;3.60;;
54993;SDS011;40891;47.242;8.648;2023-02-04T05:01:01;7.00;;;3.83;;
54993;SDS011;40891;47.242;8.648;2023-02-04T05:03:27;8.20;;;4.67;;
54993;SDS011;40891;47.242;8.648;2023-02-04T05:05:52;8.47;;;4.40;;
54993;SDS011;40891;47.242;8.648;2023-02-04T05:08:17;5.73;;;4.07;;
54993;SDS011;40891;47.242;8.648;2023-02-04T05:10:44;6.80;;;3.73;;
54993;SDS011;40891;47.242;8.648;2023-02-04T05:13:10;6.63;;;4.47;;
54993;SDS011;40891;47.242;8.648;2023-02-04T05:15:36;8.00;;;4.27;;
54993;SDS011;40891;47.242;8.648;2023-02-04T05:18:02;7.33;;;4.43;;
54993;SDS011;40891;47.242;8.648;2023-02-04T05:20:27;8.87;;;4.90;;
54993;SDS011;40891;47.242;8.648;2023-02-04T05:22:52;5.00;;;3.90;;
54993;SDS011;40891;47.242;8.648;2023-02-04T05:25:20;8.37;;;4.63;;
54993;SDS011;40891;47.242;8.648;2023-02-04T05:27:46;7.83;;;4.73;;
54993;SDS011;40891;47.242;8.648;2023-02-04T05:30:12;8.63;;;4.87;;
54993;SDS011;40891;47.242;8.648;2023-02-04T05:32:38;6.60;;;4.47;;
54993;SDS011;40891;47.242;8.648;2023-02-04T05:35:04;7.47;;;4.67;;
54993;SDS011;40891;47.242;8.648;2023-02-04T05:37:29;7.60;;;4.80;;
54993;SDS011;40891;47.242;8.648;2023-02-04T05:39:55;7.10;;;4.77;;
54993;SDS011;40891;47.242;8.648;2023-02-04T05:42:20;7.30;;;4.47;;
54993;SDS011;40891;47.242;8.648;2023-02-04T05:44:46;8.93;;;4.83;;
54993;SDS011;40891;47.242;8.648;2023-02-04T05:47:11;7.97;;;5.27;;
54993;SDS011;40891;47.242;8.648;2023-02-04T05:49:36;6.70;;;4.83;;
54993;SDS011;40891;47.242;8.648;2023-02-04T05:52:02;7.07;;;4.50;;
54993;SDS011;40891;47.242;8.648;2023-02-04T05:54:27;7.43;;;5.10;;
54993;SDS011;40891;47.242;8.648;2023-02-04T05:56:52;7.87;;;5.00;;
54993;SDS011;40891;47.242;8.648;2023-02-04T05:59:18;8.17;;;5.20;;
54993;SDS011;40891;47.242;8.648;2023-02-04T06:01:43;9.47;;;5.53;;
54993;SDS011;40891;47.242;8.648;2023-02-04T06:04:08;8.73;;;5.60;;
54993;SDS011;40891;47.242;8.648;2023-02-04T06:06:34;7.80;;;5.60;;
54993;SDS011;40891;47.242;8.648;2023-02-04T06:08:59;8.93;;;6.17;;
54993;SDS011;40891;47.242;8.648;2023-02-04T06:11:25;7.47;;;6.00;;
54993;SDS011;40891;47.242;8.648;2023-02-04T06:13:50;10.10;;;6.00;;
54993;SDS011;40891;47.242;8.648;2023-02-04T06:16:16;8.73;;;6.10;;
54993;SDS011;40891;47.242;8.648;2023-02-04T06:18:41;9.03;;;6.60;;
54993;SDS011;40891;47.242;8.648;2023-02-04T06:21:06;9.73;;;6.27;;
54993;SDS011;40891;47.242;8.648;2023-02-04T06:23:32;9.67;;;4.93;;
54993;SDS011;40891;47.242;8.648;2023-02-04T06:25:58;6.27;;;4.37;;
54993;SDS011;40891;47.242;8.648;2023-02-04T06:28:24;8.80;;;4.90;;
54993;SDS011;40891;47.242;8.648;2023-02-04T06:30:50;5.23;;;3.93;;
54993;SDS011;40891;47.242;8.648;2023-02-04T06:33:15;6.03;;;4.20;;
54993;SDS011;40891;47.242;8.648;2023-02-04T06:35:40;6.43;;;3.20;;
54993;SDS011;40891;47.242;8.648;2023-02-04T06:38:06;3.87;;;2.77;;
54993;SDS011;40891;47.242;8.648;2023-02-04T06:40:31;4.53;;;3.07;;
54993;SDS011;40891;47.242;8.648;2023-02-04T06:42:56;6.53;;;3.30;;
54993;SDS011;40891;47.242;8.648;2023-02-04T06:45:22;4.97;;;3.17;;
54993;SDS011;40891;47.242;8.648;2023-02-04T06:47:47;6.23;;;3.17;;
54993;SDS011;40891;47.242;8.648;2023-02-04T06:50:12;6.40;;;3.47;;
54993;SDS011;40891;47.242;8.648;2023-02-04T06:52:42;9.20;;;3.17;;
54993;SDS011;40891;47.242;8.648;2023-02-04T06:55:09;10.17;;;3.50;;
54993;SDS011;40891;47.242;8.648;2023-02-04T06:57:34;9.23;;;3.20;;
54993;SDS011;40891;47.242;8.648;2023-02-04T07:00:00;5.03;;;3.07;;
54993;SDS011;40891;47.242;8.648;2023-02-04T07:02:25;10.33;;;3.43;;
54993;SDS011;40891;47.242;8.648;2023-02-04T07:04:50;9.43;;;4.43;;
54993;SDS011;40891;47.242;8.648;2023-02-04T07:07:16;8.53;;;6.10;;
54993;SDS011;40891;47.242;8.648;2023-02-04T07:09:41;7.23;;;5.03;;
54993;SDS011;40891;47.242;8.648;2023-02-04T07:12:06;7.70;;;5.20;;
54993;SDS011;40891;47.242;8.648;2023-02-04T07:14:32;10.67;;;5.37;;
54993;SDS011;40891;47.242;8.648;2023-02-04T07:16:57;6.80;;;5.07;;
54993;SDS011;40891;47.242;8.648;2023-02-04T07:19:23;14.97;;;5.67;;
54993;SDS011;40891;47.242;8.648;2023-02-04T07:21:48;11.07;;;6.60;;
54993;SDS011;40891;47.242;8.648;2023-02-04T07:24:17;11.77;;;6.30;;
54993;SDS011;40891;47.242;8.648;2023-02-04T07:26:43;10.03;;;5.90;;
54993;SDS011;40891;47.242;8.648;2023-02-04T07:29:08;10.30;;;5.40;;
54993;SDS011;40891;47.242;8.648;2023-02-04T07:31:34;9.20;;;3.70;;
54993;SDS011;40891;47.242;8.648;2023-02-04T07:33:59;6.27;;;3.97;;
54993;SDS011;40891;47.242;8.648;2023-02-04T07:36:24;7.23;;;3.63;;
54993;SDS011;40891;47.242;8.648;2023-02-04T07:38:50;9.03;;;4.37;;
54993;SDS011;40891;47.242;8.648;2023-02-04T07:41:15;7.20;;;3.67;;
54993;SDS011;40891;47.242;8.648;2023-02-04T07:43:40;8.37;;;5.03;;
54993;SDS011;40891;47.242;8.648;2023-02-04T07:46:06;11.77;;;6.90;;
54993;SDS011;40891;47.242;8.648;2023-02-04T07:48:31;12.67;;;7.90;;
54993;SDS011;40891;47.242;8.648;2023-02-04T07:50:56;10.17;;;7.30;;
54993;SDS011;40891;47.242;8.648;2023-02-04T07:53:22;9.20;;;6.30;;
54993;SDS011;40891;47.242;8.648;2023-02-04T07:55:47;12.70;;;6.53;;
54993;SDS011;40891;47.242;8.648;2023-02-04T07:58:12;8.93;;;4.87;;
54993;SDS011;40891;47.242;8.648;2023-02-04T08:00:37;11.77;;;5.60;;
54993;SDS011;40891;47.242;8.648;2023-02-04T08:03:03;13.43;;;7.57;;
54993;SDS011;40891;47.242;8.648;2023-02-04T08:05:29;12.83;;;8.47;;
54993;SDS011;40891;47.242;8.648;2023-02-04T08:07:54;15.10;;;9.60;;
54993;SDS011;40891;47.242;8.648;2023-02-04T08:10:20;15.57;;;9.37;;
54993;SDS011;40891;47.242;8.648;2023-02-04T08:12:45;14.97;;;9.87;;
54993;SDS011;40891;47.242;8.648;2023-02-04T08:15:11;18.17;;;10.10;;
54993;SDS011;40891;47.242;8.648;2023-02-04T08:17:36;15.83;;;10.10;;
54993;SDS011;40891;47.242;8.648;2023-02-04T08:20:02;15.80;;;10.27;;
54993;SDS011;40891;47.242;8.648;2023-02-04T08:22:28;15.43;;;10.83;;
54993;SDS011;40891;47.242;8.648;2023-02-04T08:24:53;16.47;;;10.77;;
54993;SDS011;40891;47.242;8.648;2023-02-04T08:27:19;15.30;;;9.80;;
54993;SDS011;40891;47.242;8.648;2023-02-04T08:29:44;14.43;;;9.33;;
54993;SDS011;40891;47.242;8.648;2023-02-04T08:32:10;15.67;;;8.80;;
54993;SDS011;40891;47.242;8.648;2023-02-04T08:34:37;12.77;;;8.90;;
54993;SDS011;40891;47.242;8.648;2023-02-04T08:37:03;11.47;;;8.70;;
54993;SDS011;40891;47.242;8.648;2023-02-04T08:39:29;13.83;;;9.03;;
54993;SDS011;40891;47.242;8.648;2023-02-04T08:41:54;14.43;;;10.23;;
54993;SDS011;40891;47.242;8.648;2023-02-04T08:44:19;19.13;;;9.93;;
54993;SDS011;40891;47.242;8.648;2023-02-04T08:46:45;14.13;;;8.90;;
54993;SDS011;40891;47.242;8.648;2023-02-04T08:49:10;13.90;;;9.00;;
54993;SDS011;40891;47.242;8.648;2023-02-04T08:51:35;13.97;;;9.60;;
54993;SDS011;40891;47.242;8.648;2023-02-04T08:54:01;17.33;;;10.00;;
54993;SDS011;40891;47.242;8.648;2023-02-04T08:56:26;16.60;;;9.87;;
54993;SDS011;40891;47.242;8.648;2023-02-04T08:58:52;12.60;;;8.80;;
54993;SDS011;40891;47.242;8.648;2023-02-04T09:01:17;13.17;;;9.33;;
54993;SDS011;40891;47.242;8.648;2023-02-04T09:03:43;12.80;;;8.80;;
54993;SDS011;40891;47.242;8.648;2023-02-04T09:06:09;14.30;;;9.10;;
54993;SDS011;40891;47.242;8.648;2023-02-04T09:08:35;14.03;;;9.80;;
54993;SDS011;40891;47.242;8.648;2023-02-04T09:11:01;15.47;;;9.57;;
54993;SDS011;40891;47.242;8.648;2023-02-04T09:13:26;16.07;;;9.37;;
54993;SDS011;40891;47.242;8.648;2023-02-04T09:15:52;16.00;;;9.10;;
54993;SDS011;40891;47.242;8.648;2023-02-04T09:18:17;17.50;;;9.87;;
54993;SDS011;40891;47.242;8.648;2023-02-04T09:20:46;15.93;;;9.70;;
54993;SDS011;40891;47.242;8.648;2023-02-04T09:23:12;17.30;;;10.80;;
54993;SDS011;40891;47.242;8.648;2023-02-04T09:25:38;17.90;;;10.47;;
54993;SDS011;40891;47.242;8.648;2023-02-04T09:28:04;16.40;;;10.37;;
54993;SDS011;40891;47.242;8.648;2023-02-04T09:30:30;14.33;;;10.07;;
54993;SDS011;40891;47.242;8.648;2023-02-04T09:32:55;16.17;;;9.43;;
54993;SDS011;40891;47.242;8.648;2023-02-04T09:35:21;12.87;;;8.57;;
54993;SDS011;40891;47.242;8.648;2023-02-04T09:37:46;12.60;;;8.80;;
54993;SDS011;40891;47.242;8.648;2023-02-04T09:40:13;12.97;;;8.83;;
54993;SDS011;40891;47.242;8.648;2023-02-04T09:42:41;13.53;;;7.90;;
54993;SDS011;40891;47.242;8.648;2023-02-04T09:45:09;10.67;;;8.27;;
54993;SDS011;40891;47.242;8.648;2023-02-04T09:47:41;16.60;;;9.57;;
54993;SDS011;40891;47.242;8.648;2023-02-04T09:50:08;11.43;;;7.63;;
54993;SDS011;40891;47.242;8.648;2023-02-04T09:52:38;9.80;;;7.70;;
54993;SDS011;40891;47.242;8.648;2023-02-04T09:55:07;11.50;;;7.97;;
54993;SDS011;40891;47.242;8.648;2023-02-04T09:57:37;13.00;;;8.03;;
54993;SDS011;40891;47.242;8.648;2023-02-04T10:00:05;9.40;;;7.20;;
54993;SDS011;40891;47.242;8.648;2023-02-04T10:02:41;11.03;;;7.67;;
54993;SDS011;40891;47.242;8.648;2023-02-04T10:05:14;10.77;;;7.13;;
54993;SDS011;40891;47.242;8.648;2023-02-04T10:07:41;12.07;;;7.93;;
54993;SDS011;40891;47.242;8.648;2023-02-04T10:10:17;10.43;;;7.83;;
54993;SDS011;40891;47.242;8.648;2023-02-04T10:12:44;11.43;;;7.77;;
54993;SDS011;40891;47.242;8.648;2023-02-04T10:15:14;12.07;;;8.37;;
54993;SDS011;40891;47.242;8.648;2023-02-04T10:17:41;9.60;;;6.70;;
54993;SDS011;40891;47.242;8.648;2023-02-04T10:20:11;11.93;;;8.70;;
54993;SDS011;40891;47.242;8.648;2023-02-04T10:22:38;12.17;;;7.77;;
54993;SDS011;40891;47.242;8.648;2023-02-04T10:25:09;11.70;;;8.20;;
54993;SDS011;40891;47.242;8.648;2023-02-04T10:27:45;11.10;;;7.90;;
54993;SDS011;40891;47.242;8.648;2023-02-04T10:30:37;12.33;;;8.43;;
54993;SDS011;40891;47.242;8.648;2023-02-04T10:33:12;10.73;;;6.70;;
54993;SDS011;40891;47.242;8.648;2023-02-04T10:35:45;14.47;;;7.63;;
54993;SDS011;40891;47.242;8.648;2023-02-04T10:38:11;11.70;;;7.37;;
54993;SDS011;40891;47.242;8.648;2023-02-04T10:40:37;13.03;;;8.27;;
54993;SDS011;40891;47.242;8.648;2023-02-04T10:43:09;11.43;;;8.37;;
54993;SDS011;40891;47.242;8.648;2023-02-04T10:45:38;13.53;;;8.70;;
54993;SDS011;40891;47.242;8.648;2023-02-04T10:48:16;13.93;;;8.93;;
54993;SDS011;40891;47.242;8.648;2023-02-04T10:50:42;15.13;;;9.13;;
54993;SDS011;40891;47.242;8.648;2023-02-04T10:53:09;13.37;;;8.57;;
54993;SDS011;40891;47.242;8.648;2023-02-04T10:55:55;13.33;;;8.90;;
54993;SDS011;40891;47.242;8.648;2023-02-04T10:58:30;12.33;;;7.93;;
54993;SDS011;40891;47.242;8.648;2023-02-04T11:00:56;10.17;;;7.20;;
54993;SDS011;40891;47.242;8.648;2023-02-04T11:03:23;10.23;;;6.93;;
54993;SDS011;40891;47.242;8.648;2023-02-04T11:05:50;9.00;;;6.23;;
54993;SDS011;40891;47.242;8.648;2023-02-04T11:08:21;11.17;;;7.27;;
54993;SDS011;40891;47.242;8.648;2023-02-04T11:10:50;9.53;;;6.00;;
54993;SDS011;40891;47.242;8.648;2023-02-04T11:13:20;8.73;;;6.17;;
54993;SDS011;40891;47.242;8.648;2023-02-04T11:15:49;7.83;;;5.23;;
54993;SDS011;40891;47.242;8.648;2023-02-04T11:20:44;6.93;;;4.83;;
54993;SDS011;40891;47.242;8.648;2023-02-04T11:39:33;11.97;;;6.20;;
54993;SDS011;40891;47.242;8.648;2023-02-04T11:42:01;6.27;;;4.53;;
54993;SDS011;40891;47.242;8.648;2023-02-04T11:44:27;6.20;;;4.50;;
54993;SDS011;40891;47.242;8.648;2023-02-04T11:46:53;5.90;;;3.93;;
54993;SDS011;40891;47.242;8.648;2023-02-04T11:49:20;6.37;;;3.40;;
54993;SDS011;40891;47.242;8.648;2023-02-04T11:51:47;4.77;;;3.60;;
54993;SDS011;40891;47.242;8.648;2023-02-04T11:54:13;5.90;;;3.90;;
54993;SDS011;40891;47.242;8.648;2023-02-04T11:56:43;6.10;;;4.23;;
54993;SDS011;40891;47.242;8.648;2023-02-04T11:59:10;5.43;;;3.80;;
54993;SDS011;40891;47.242;8.648;2023-02-04T12:01:37;6.07;;;4.23;;
54993;SDS011;40891;47.242;8.648;2023-02-04T12:04:03;5.27;;;3.30;;
54993;SDS011;40891;47.242;8.648;2023-02-04T12:06:32;5.53;;;3.40;;
54993;SDS011;40891;47.242;8.648;2023-02-04T12:09:07;6.37;;;3.60;;
54993;SDS011;40891;47.242;8.648;2023-02-04T12:11:53;4.73;;;3.67;;
54993;SDS011;40891;47.242;8.648;2023-02-04T12:14:33;7.97;;;3.90;;
54993;SDS011;40891;47.242;8.648;2023-02-04T12:17:11;5.33;;;4.37;;
54993;SDS011;40891;47.242;8.648;2023-02-04T12:19:39;6.07;;;4.13;;
54993;SDS011;40891;47.242;8.648;2023-02-04T12:22:04;8.63;;;4.27;;
54993;SDS011;40891;47.242;8.648;2023-02-04T12:24:30;8.17;;;4.70;;
54993;SDS011;40891;47.242;8.648;2023-02-04T12:26:55;6.60;;;4.27;;
54993;SDS011;40891;47.242;8.648;2023-02-04T12:29:20;6.00;;;4.13;;
54993;SDS011;40891;47.242;8.648;2023-02-04T12:31:46;7.97;;;4.97;;
54993;SDS011;40891;47.242;8.648;2023-02-04T12:34:14;6.30;;;4.27;;
54993;SDS011;40891;47.242;8.648;2023-02-04T12:36:41;7.07;;;3.93;;
54993;SDS011;40891;47.242;8.648;2023-02-04T12:39:06;6.43;;;4.50;;
54993;SDS011;40891;47.242;8.648;2023-02-04T12:41:31;8.60;;;5.20;;
54993;SDS011;40891;47.242;8.648;2023-02-04T12:43:57;6.10;;;4.63;;
54993;SDS011;40891;47.242;8.648;2023-02-04T12:46:25;7.57;;;4.50;;
54993;SDS011;40891;47.242;8.648;2023-02-04T12:48:50;5.73;;;4.17;;
54993;SDS011;40891;47.242;8.648;2023-02-04T12:51:16;5.57;;;4.27;;
54993;SDS011;40891;47.242;8.648;2023-02-04T12:53:41;5.60;;;4.23;;
54993;SDS011;40891;47.242;8.648;2023-02-04T12:56:06;8.23;;;4.00;;
54993;SDS011;40891;47.242;8.648;2023-02-04T12:58:32;7.20;;;4.50;;
54993;SDS011;40891;47.242;8.648;2023-02-04T13:00:57;7.27;;;4.47;;
54993;SDS011;40891;47.242;8.648;2023-02-04T13:03:22;6.13;;;4.40;;
54993;SDS011;40891;47.242;8.648;2023-02-04T13:05:49;6.33;;;4.50;;
54993;SDS011;40891;47.242;8.648;2023-02-04T13:08:14;7.60;;;4.43;;
54993;SDS011;40891;47.242;8.648;2023-02-04T13:10:39;5.83;;;4.60;;
54993;SDS011;40891;47.242;8.648;2023-02-04T13:13:06;7.83;;;4.73;;
54993;SDS011;40891;47.242;8.648;2023-02-04T13:15:31;8.53;;;5.03;;
54993;SDS011;40891;47.242;8.648;2023-02-04T13:17:56;8.53;;;4.90;;
54993;SDS011;40891;47.242;8.648;2023-02-04T13:20:22;9.33;;;4.83;;
54993;SDS011;40891;47.242;8.648;2023-02-04T13:22:47;6.17;;;4.57;;
54993;SDS011;40891;47.242;8.648;2023-02-04T13:25:13;7.33;;;4.87;;
54993;SDS011;40891;47.242;8.648;2023-02-04T13:27:38;9.70;;;5.90;;
54993;SDS011;40891;47.242;8.648;2023-02-04T13:30:04;9.83;;;5.40;;
54993;SDS011;40891;47.242;8.648;2023-02-04T13:32:30;7.47;;;5.53;;
54993;SDS011;40891;47.242;8.648;2023-02-04T13:34:56;6.83;;;5.70;;
54993;SDS011;40891;47.242;8.648;2023-02-04T13:37:21;6.97;;;5.33;;
54993;SDS011;40891;47.242;8.648;2023-02-04T13:39:46;11.70;;;5.17;;
54993;SDS011;40891;47.242;8.648;2023-02-04T13:42:11;6.53;;;4.50;;
54993;SDS011;40891;47.242;8.648;2023-02-04T13:44:37;6.10;;;4.77;;
54993;SDS011;40891;47.242;8.648;2023-02-04T13:47:02;8.60;;;5.00;;
54993;SDS011;40891;47.242;8.648;2023-02-04T13:49:28;7.07;;;5.10;;
54993;SDS011;40891;47.242;8.648;2023-02-04T13:51:53;10.27;;;4.83;;
54993;SDS011;40891;47.242;8.648;2023-02-04T13:54:18;8.37;;;5.13;;
54993;SDS011;40891;47.242;8.648;2023-02-04T13:56:43;7.07;;;5.00;;
54993;SDS011;40891;47.242;8.648;2023-02-04T13:59:09;9.93;;;5.20;;
54993;SDS011;40891;47.242;8.648;2023-02-04T14:01:34;8.80;;;5.47;;
54993;SDS011;40891;47.242;8.648;2023-02-04T14:03:59;8.27;;;5.50;;
54993;SDS011;40891;47.242;8.648;2023-02-04T14:06:25;7.20;;;5.63;;
54993;SDS011;40891;47.242;8.648;2023-02-04T14:08:57;11.40;;;5.90;;
54993;SDS011;40891;47.242;8.648;2023-02-04T14:11:23;8.63;;;5.37;;
54993;SDS011;40891;47.242;8.648;2023-02-04T14:13:48;5.80;;;5.20;;
54993;SDS011;40891;47.242;8.648;2023-02-04T14:16:14;7.43;;;5.20;;
54993;SDS011;40891;47.242;8.648;2023-02-04T14:18:39;9.10;;;5.20;;
54993;SDS011;40891;47.242;8.648;2023-02-04T14:21:04;5.60;;;4.77;;
54993;SDS011;40891;47.242;8.648;2023-02-04T14:23:29;7.63;;;5.57;;
54993;SDS011;40891;47.242;8.648;2023-02-04T14:25:55;8.80;;;5.23;;
54993;SDS011;40891;47.242;8.648;2023-02-04T14:28:20;7.73;;;5.53;;
54993;SDS011;40891;47.242;8.648;2023-02-04T14:30:46;7.00;;;5.00;;
54993;SDS011;40891;47.242;8.648;2023-02-04T14:33:11;6.13;;;5.10;;
54993;SDS011;40891;47.242;8.648;2023-02-04T14:35:36;8.97;;;6.10;;
54993;SDS011;40891;47.242;8.648;2023-02-04T14:38:02;5.87;;;4.83;;
54993;SDS011;40891;47.242;8.648;2023-02-04T14:40:27;5.90;;;4.83;;
54993;SDS011;40891;47.242;8.648;2023-02-04T14:42:53;5.27;;;4.50;;
54993;SDS011;40891;47.242;8.648;2023-02-04T14:45:18;8.53;;;4.53;;
54993;SDS011;40891;47.242;8.648;2023-02-04T14:47:44;7.73;;;4.70;;
54993;SDS011;40891;47.242;8.648;2023-02-04T14:50:12;5.90;;;4.90;;
54993;SDS011;40891;47.242;8.648;2023-02-04T14:52:39;5.00;;;4.43;;
54993;SDS011;40891;47.242;8.648;2023-02-04T14:55:04;6.60;;;4.80;;
54993;SDS011;40891;47.242;8.648;2023-02-04T14:57:30;6.23;;;4.63;;